LTAE Airport Information

Runway Information
Runway 03 Length 10991 ft width 148 ft
Elevation 2729 ft Threshold 0 ft Heading 33
Runway 21 Length 10991 ft Width 148 ft
Elevation 2767 ft Threshold 0 ft Heading 213
Airport Frequencies
Type APP Name ESENBOGA A Frequency 119.1 MHZ
Type ATIS Name ATIS Frequency 264.15 MHZ
Type TWR Name TWR Frequency 122.1 MHZ
Airport Navaids
Type TACAN Name Akinci Frequency 114500 KHZ
Airport Weather Information & NOTAM
ADDS - METARS form results

(1021 UTC 23 March 2019)
Data provider http://aviationweather.gov/metar/data/
 
Forecast for: LTAE (MURTED (TUR-AFB), TR)
Text: TAF LTAE 230740Z 2309/2318 VRB02KT CAVOK
Forecast period: 0900 to 1000 UTC 23 March 2019
Forecast type: FROM: standard forecast or significant change
Winds: variable direction winds at 2 MPH (2 knots; 1.0 m/s)
Visibility: 6 or more miles 10+ km)
Ceiling: unknown
Clouds: missing
Weather: NSW  (no significant weather)
Text: BECMG 2310/2312 35012KT SCT040 SCT100
Forecast period: 1000 to 1800 UTC 23 March 2019
Forecast type: BECOMING: Conditions expected to become as follows by 1200 UTC 23 March 2019
Winds: from the N (350 degrees) at 14 MPH (12 knots; 6.2 m/s)
Visibility: 6 or more miles 10+ km)
Ceiling: at least 12,000 feet AGL
Clouds: scattered clouds at 4000 feet AGL
scattered clouds at 10000 feet AGL
Weather: NSW  (no significant weather)